Miedwie — C6XP5 — position and weather

sailwx.info

Track history (hours):
 
Tides and Currents Weather Stations Pressure Air Temp Water Temp Dewpoint Dewpoint Depression Visibility Wind Speed Wind Dir Waves Ship Positions

Miedwie

Last reported at 2018-Apr-10 01:21 UTC. Time now 2018-Apr-20 16:28 UTC.
Position N 38°21' W 010°05'.
Warning: this ship's position is 10 days out of date.

Length 190 m; draft 8.5 m.

Type: Cargo ship. MMSI: 311018300.

Date/timePositionNaut miles runAvg speedWind from/ knotsBaromVisibWave heightAir tempDewpointWater temp
2018-Apr-10 01:21N 38°21' W 010°05'810.8
2018-Apr-10 00:38N 38°29' W 010°05'311.0
2018-Apr-10 00:19N 38°32' W 010°05'711.2
2018-Apr-09 23:42N 38°39' W 010°06'311.2
2018-Apr-09 23:24N 38°42' W 010°06'411.1
2018-Apr-09 23:00N 38°47' W 010°06'510.9
2018-Apr-09 22:30N 38°52' W 010°06'510.9
2018-Apr-09 22:00N 38°58' W 010°06'510.9
2018-Apr-09 21:30N 39°03' W 010°06'510.8
2018-Apr-09 21:00N 39°08' W 010°06'510.5
2018-Apr-09 20:30N 39°14' W 010°06'  
2018-Apr-06 22:22N 49°46' W 003°31'8 9.1
2018-Apr-06 21:27N 49°50' W 003°20'6 9.3
2018-Apr-06 20:50N 49°52' W 003°12'8 9.9
2018-Apr-06 20:01N 49°56' W 003°01'010.5
2018-Apr-06 20:00N 49°56' W 003°00'510.4
2018-Apr-06 19:30N 49°58' W 002°53'611.1
2018-Apr-06 19:00N 49°60' W 002°45'3312.6
2018-Apr-06 16:25N 50°10' W 001°56'512.3
2018-Apr-06 16:00N 50°11' W 001°49'612.1
2018-Apr-06 15:30N 50°13' W 001°40'611.5
2018-Apr-06 15:00N 50°15' W 001°31'510.9
2018-Apr-06 14:30N 50°16' W 001°23'510.4
2018-Apr-06 14:00N 50°18' W 001°15'34 8.9
2018-Apr-06 10:12N 50°27' W 000°24'210.2
2018-Apr-06 10:00N 50°28' W 000°21'510.6
2018-Apr-06 09:30N 50°29' W 000°13'611.2
2018-Apr-06 09:00N 50°31' W 000°05'611.7
2018-Apr-06 08:30N 50°33' E 000°04'612.1
2018-Apr-06 08:00N 50°34' E 000°13'612.4
2018-Apr-06 07:30N 50°36' E 000°22'612.5
2018-Apr-06 07:00N 50°38' E 000°32'612.1
2018-Apr-06 06:30N 50°41' E 000°40'611.7
2018-Apr-06 06:00N 50°44' E 000°48'611.3
2018-Apr-06 05:30N 50°48' E 000°55'510.8
2018-Apr-06 05:00N 50°51' E 001°02'20 9.5
2018-Apr-06 02:54N 51°04' E 001°26'4 9.4
2018-Apr-06 02:30N 51°06' E 001°31'5 9.8
2018-Apr-06 02:00N 51°09' E 001°37'510.2
2018-Apr-06 01:30N 51°12' E 001°43'611.4
2018-Apr-06 01:00N 51°17' E 001°48'612.5
2018-Apr-06 00:30N 51°23' E 001°53'713.0
2018-Apr-05 23:59N 51°28' E 001°58'613.1
2018-Apr-05 23:30N 51°33' E 002°05'613.0
2018-Apr-05 23:01N 51°38' E 002°12'612.8
2018-Apr-05 22:30N 51°43' E 002°19'612.2
2018-Apr-05 22:00N 51°48' E 002°25'611.8
2018-Apr-05 21:29N 51°52' E 002°31'710.3
2018-Apr-05 20:50N 51°58' E 002°37'140 9.7
2018-Apr-05 06:20N 54°03' E 004°24'410.6
2018-Apr-05 06:00N 54°05' E 004°28'610.7
2018-Apr-05 05:29N 54°10' E 004°33'29210.2
2018-Apr-04 01:00N 57°49' E 010°18'611.5
2018-Apr-04 00:30N 57°49' E 010°29'611.5
2018-Apr-04 00:00N 57°49' E 010°39'510.8
2018-Apr-03 23:31N 57°47' E 010°49'611.0
2018-Apr-03 23:00N 57°44' E 010°57'611.2
2018-Apr-03 22:30N 57°40' E 011°05'611.4
2018-Apr-03 22:00N 57°36' E 011°13'611.5
2018-Apr-03 21:30N 57°32' E 011°21'611.3
2018-Apr-03 21:00N 57°28' E 011°27'611.7
2018-Apr-03 20:30N 57°22' E 011°31'611.9
2018-Apr-03 19:59N 57°17' E 011°34'611.9
2018-Apr-03 19:31N 57°11' E 011°38'11510.4
2018-Apr-03 08:25N 55°18' E 011°03'710.4
2018-Apr-03 07:43N 55°10' E 011°04'311.4
2018-Apr-03 07:28N 55°08' E 011°03'511.5
2018-Apr-03 07:00N 55°02' E 011°02'510.7
2018-Apr-03 06:30N 54°57' E 010°58'510.8
2018-Apr-03 06:01N 54°53' E 010°54'611.5
2018-Apr-03 05:30N 54°47' E 010°53'611.0
2018-Apr-03 05:00N 54°42' E 010°55'611.5
2018-Apr-03 04:30N 54°39' E 011°03'611.4
2018-Apr-03 04:00N 54°36' E 011°12'611.7
2018-Apr-03 03:30N 54°33' E 011°21'611.4
2018-Apr-03 03:00N 54°31' E 011°30'611.3
2018-Apr-03 02:30N 54°28' E 011°39'21 9.2
2018-Apr-03 00:15N 54°33' E 012°14'311.2
2018-Apr-03 00:00N 54°35' E 012°15'810.8
2018-Apr-02 23:15N 54°41' E 012°25'311.2
2018-Apr-02 22:59N 54°42' E 012°30'611.2
2018-Apr-02 22:29N 54°45' E 012°38'4810.9
2018-Apr-02 18:04N 55°03' E 013°56'210.7
2018-Apr-02 17:54N 55°03' E 013°59'610.3
2018-Apr-02 17:20N 55°06' E 014°07'410.6
2018-Apr-02 16:56N 55°10' E 014°12'510.7
2018-Apr-02 16:30N 55°13' E 014°17'610.8
2018-Apr-02 16:00N 55°18' E 014°23'510.7
2018-Apr-02 15:30N 55°22' E 014°29'510.5
2018-Apr-02 15:00N 55°26' E 014°35'5 9.9
2018-Apr-02 14:29N 55°28' E 014°43'5 9.9
2018-Apr-02 14:01N 55°30' E 014°50'510.0
2018-Apr-02 13:31N 55°33' E 014°58'510.1
2018-Apr-02 13:00N 55°35' E 015°06'510.3
2018-Apr-02 12:31N 55°37' E 015°14'510.6
2018-Apr-02 12:01N 55°39' E 015°23'510.3
2018-Apr-02 11:31N 55°40' E 015°32'510.2
2018-Apr-02 11:01N 55°41' E 015°40'510.0
2018-Apr-02 10:31N 55°43' E 015°49'5 9.8
2018-Apr-02 10:00N 55°44' E 015°57'5 9.9
2018-Apr-02 09:31N 55°45' E 016°06'5 9.9
2018-Apr-02 09:01N 55°46' E 016°15'5 9.9
2018-Apr-02 08:30N 55°47' E 016°23'510.0
2018-Apr-02 08:00N 55°49' E 016°32'  
Track history (hours):
 
Tides and Currents Weather Stations Pressure Air Temp Water Temp Dewpoint Dewpoint Depression Visibility Wind Speed Wind Dir Waves Ship Positions

Miedwie

Last reported at 2018-Apr-10 01:21 UTC. Time now 2018-Apr-20 16:28 UTC.
Position N 38°21' W 010°05'.
Warning: this ship's position is 10 days out of date.

Length 190 m; draft 8.5 m.

Type: Cargo ship. MMSI: 311018300.

Date/timePositionNaut miles runAvg speedWind from/ knotsBaromVisibWave heightAir tempDewpointWater temp
2018-Apr-10 01:21N 38°21' W 010°05'810.8
2018-Apr-10 00:38N 38°29' W 010°05'311.0
2018-Apr-10 00:19N 38°32' W 010°05'711.2
2018-Apr-09 23:42N 38°39' W 010°06'311.2
2018-Apr-09 23:24N 38°42' W 010°06'411.1
2018-Apr-09 23:00N 38°47' W 010°06'510.9
2018-Apr-09 22:30N 38°52' W 010°06'510.9
2018-Apr-09 22:00N 38°58' W 010°06'510.9
2018-Apr-09 21:30N 39°03' W 010°06'510.8
2018-Apr-09 21:00N 39°08' W 010°06'510.5
2018-Apr-09 20:30N 39°14' W 010°06'  
2018-Apr-06 22:22N 49°46' W 003°31'8 9.1
2018-Apr-06 21:27N 49°50' W 003°20'6 9.3
2018-Apr-06 20:50N 49°52' W 003°12'8 9.9
2018-Apr-06 20:01N 49°56' W 003°01'010.5
2018-Apr-06 20:00N 49°56' W 003°00'510.4
2018-Apr-06 19:30N 49°58' W 002°53'611.1
2018-Apr-06 19:00N 49°60' W 002°45'3312.6
2018-Apr-06 16:25N 50°10' W 001°56'512.3
2018-Apr-06 16:00N 50°11' W 001°49'612.1
2018-Apr-06 15:30N 50°13' W 001°40'611.5
2018-Apr-06 15:00N 50°15' W 001°31'510.9
2018-Apr-06 14:30N 50°16' W 001°23'510.4
2018-Apr-06 14:00N 50°18' W 001°15'34 8.9
2018-Apr-06 10:12N 50°27' W 000°24'210.2
2018-Apr-06 10:00N 50°28' W 000°21'510.6
2018-Apr-06 09:30N 50°29' W 000°13'611.2
2018-Apr-06 09:00N 50°31' W 000°05'611.7
2018-Apr-06 08:30N 50°33' E 000°04'612.1
2018-Apr-06 08:00N 50°34' E 000°13'612.4
2018-Apr-06 07:30N 50°36' E 000°22'612.5
2018-Apr-06 07:00N 50°38' E 000°32'612.1
2018-Apr-06 06:30N 50°41' E 000°40'611.7
2018-Apr-06 06:00N 50°44' E 000°48'611.3
2018-Apr-06 05:30N 50°48' E 000°55'510.8
2018-Apr-06 05:00N 50°51' E 001°02'20 9.5
2018-Apr-06 02:54N 51°04' E 001°26'4 9.4
2018-Apr-06 02:30N 51°06' E 001°31'5 9.8
2018-Apr-06 02:00N 51°09' E 001°37'510.2
2018-Apr-06 01:30N 51°12' E 001°43'611.4
2018-Apr-06 01:00N 51°17' E 001°48'612.5
2018-Apr-06 00:30N 51°23' E 001°53'713.0
2018-Apr-05 23:59N 51°28' E 001°58'613.1
2018-Apr-05 23:30N 51°33' E 002°05'613.0
2018-Apr-05 23:01N 51°38' E 002°12'612.8
2018-Apr-05 22:30N 51°43' E 002°19'612.2
2018-Apr-05 22:00N 51°48' E 002°25'611.8
2018-Apr-05 21:29N 51°52' E 002°31'710.3
2018-Apr-05 20:50N 51°58' E 002°37'140 9.7
2018-Apr-05 06:20N 54°03' E 004°24'410.6
2018-Apr-05 06:00N 54°05' E 004°28'610.7
2018-Apr-05 05:29N 54°10' E 004°33'29210.2
2018-Apr-04 01:00N 57°49' E 010°18'611.5
2018-Apr-04 00:30N 57°49' E 010°29'611.5
2018-Apr-04 00:00N 57°49' E 010°39'510.8
2018-Apr-03 23:31N 57°47' E 010°49'611.0
2018-Apr-03 23:00N 57°44' E 010°57'611.2
2018-Apr-03 22:30N 57°40' E 011°05'611.4
2018-Apr-03 22:00N 57°36' E 011°13'611.5
2018-Apr-03 21:30N 57°32' E 011°21'611.3
2018-Apr-03 21:00N 57°28' E 011°27'611.7
2018-Apr-03 20:30N 57°22' E 011°31'611.9
2018-Apr-03 19:59N 57°17' E 011°34'611.9
2018-Apr-03 19:31N 57°11' E 011°38'11510.4
2018-Apr-03 08:25N 55°18' E 011°03'710.4
2018-Apr-03 07:43N 55°10' E 011°04'311.4
2018-Apr-03 07:28N 55°08' E 011°03'511.5
2018-Apr-03 07:00N 55°02' E 011°02'510.7
2018-Apr-03 06:30N 54°57' E 010°58'510.8
2018-Apr-03 06:01N 54°53' E 010°54'611.5
2018-Apr-03 05:30N 54°47' E 010°53'611.0
2018-Apr-03 05:00N 54°42' E 010°55'611.5
2018-Apr-03 04:30N 54°39' E 011°03'611.4
2018-Apr-03 04:00N 54°36' E 011°12'611.7
2018-Apr-03 03:30N 54°33' E 011°21'611.4
2018-Apr-03 03:00N 54°31' E 011°30'611.3
2018-Apr-03 02:30N 54°28' E 011°39'21 9.2
2018-Apr-03 00:15N 54°33' E 012°14'311.2
2018-Apr-03 00:00N 54°35' E 012°15'810.8
2018-Apr-02 23:15N 54°41' E 012°25'311.2
2018-Apr-02 22:59N 54°42' E 012°30'611.2
2018-Apr-02 22:29N 54°45' E 012°38'4810.9
2018-Apr-02 18:04N 55°03' E 013°56'210.7
2018-Apr-02 17:54N 55°03' E 013°59'610.3
2018-Apr-02 17:20N 55°06' E 014°07'410.6
2018-Apr-02 16:56N 55°10' E 014°12'510.7
2018-Apr-02 16:30N 55°13' E 014°17'610.8
2018-Apr-02 16:00N 55°18' E 014°23'510.7
2018-Apr-02 15:30N 55°22' E 014°29'510.5
2018-Apr-02 15:00N 55°26' E 014°35'5 9.9
2018-Apr-02 14:29N 55°28' E 014°43'5 9.9
2018-Apr-02 14:01N 55°30' E 014°50'510.0
2018-Apr-02 13:31N 55°33' E 014°58'510.1
2018-Apr-02 13:00N 55°35' E 015°06'510.3
2018-Apr-02 12:31N 55°37' E 015°14'510.6
2018-Apr-02 12:01N 55°39' E 015°23'510.3
2018-Apr-02 11:31N 55°40' E 015°32'510.2
2018-Apr-02 11:01N 55°41' E 015°40'510.0
2018-Apr-02 10:31N 55°43' E 015°49'5 9.8
2018-Apr-02 10:00N 55°44' E 015°57'5 9.9
2018-Apr-02 09:31N 55°45' E 016°06'5 9.9
2018-Apr-02 09:01N 55°46' E 016°15'5 9.9
2018-Apr-02 08:30N 55°47' E 016°23'510.0
2018-Apr-02 08:00N 55°49' E 016°32'  

Dump ship's entire track history